sensor_id;sensor_type;location;lat;lon;timestamp;P1;durP1;ratioP1;P2;durP2;ratioP2
69703;SDS011;56967;43.538;-5.646;2023-02-01T00:01:26;9.13;;;5.47;;
69703;SDS011;56967;43.538;-5.646;2023-02-01T00:03:51;9.07;;;5.68;;
69703;SDS011;56967;43.538;-5.646;2023-02-01T00:06:17;8.93;;;6.10;;
69703;SDS011;56967;43.538;-5.646;2023-02-01T00:08:43;8.52;;;5.55;;
69703;SDS011;56967;43.538;-5.646;2023-02-01T00:11:10;9.05;;;5.93;;
69703;SDS011;56967;43.538;-5.646;2023-02-01T00:13:37;8.43;;;5.65;;
69703;SDS011;56967;43.538;-5.646;2023-02-01T00:16:05;8.80;;;6.00;;
69703;SDS011;56967;43.538;-5.646;2023-02-01T00:18:35;9.98;;;6.50;;
69703;SDS011;56967;43.538;-5.646;2023-02-01T00:21:01;10.13;;;6.35;;
69703;SDS011;56967;43.538;-5.646;2023-02-01T00:23:27;9.32;;;5.80;;
69703;SDS011;56967;43.538;-5.646;2023-02-01T00:25:52;8.20;;;5.60;;
69703;SDS011;56967;43.538;-5.646;2023-02-01T00:28:18;9.48;;;6.07;;
69703;SDS011;56967;43.538;-5.646;2023-02-01T00:30:44;8.43;;;5.68;;
69703;SDS011;56967;43.538;-5.646;2023-02-01T00:33:09;9.30;;;5.53;;
69703;SDS011;56967;43.538;-5.646;2023-02-01T00:35:35;8.65;;;5.55;;
69703;SDS011;56967;43.538;-5.646;2023-02-01T00:38:01;9.20;;;5.60;;
69703;SDS011;56967;43.538;-5.646;2023-02-01T00:40:27;13.45;;;7.00;;
69703;SDS011;56967;43.538;-5.646;2023-02-01T00:42:52;11.98;;;6.82;;
69703;SDS011;56967;43.538;-5.646;2023-02-01T00:45:18;12.88;;;6.50;;
69703;SDS011;56967;43.538;-5.646;2023-02-01T00:47:44;9.75;;;5.88;;
69703;SDS011;56967;43.538;-5.646;2023-02-01T00:50:10;8.82;;;6.10;;
69703;SDS011;56967;43.538;-5.646;2023-02-01T00:52:35;8.98;;;5.55;;
69703;SDS011;56967;43.538;-5.646;2023-02-01T00:55:01;8.27;;;5.30;;
69703;SDS011;56967;43.538;-5.646;2023-02-01T00:57:27;8.90;;;6.15;;
69703;SDS011;56967;43.538;-5.646;2023-02-01T00:59:52;7.85;;;5.70;;
69703;SDS011;56967;43.538;-5.646;2023-02-01T01:02:18;9.57;;;5.93;;
69703;SDS011;56967;43.538;-5.646;2023-02-01T01:04:45;7.57;;;5.38;;
69703;SDS011;56967;43.538;-5.646;2023-02-01T01:07:11;10.13;;;5.68;;
69703;SDS011;56967;43.538;-5.646;2023-02-01T01:09:36;9.55;;;5.57;;
69703;SDS011;56967;43.538;-5.646;2023-02-01T01:12:02;9.75;;;5.80;;
69703;SDS011;56967;43.538;-5.646;2023-02-01T01:14:28;8.82;;;5.63;;
69703;SDS011;56967;43.538;-5.646;2023-02-01T01:16:54;9.65;;;6.13;;
69703;SDS011;56967;43.538;-5.646;2023-02-01T01:19:20;8.05;;;5.90;;
69703;SDS011;56967;43.538;-5.646;2023-02-01T01:21:45;9.68;;;6.18;;
69703;SDS011;56967;43.538;-5.646;2023-02-01T01:24:11;13.10;;;6.80;;
69703;SDS011;56967;43.538;-5.646;2023-02-01T01:26:37;10.18;;;6.38;;
69703;SDS011;56967;43.538;-5.646;2023-02-01T01:29:02;11.98;;;6.60;;
69703;SDS011;56967;43.538;-5.646;2023-02-01T01:31:28;12.85;;;7.22;;
69703;SDS011;56967;43.538;-5.646;2023-02-01T01:33:55;12.57;;;7.82;;
69703;SDS011;56967;43.538;-5.646;2023-02-01T01:36:23;13.20;;;8.30;;
69703;SDS011;56967;43.538;-5.646;2023-02-01T01:38:49;12.00;;;7.63;;
69703;SDS011;56967;43.538;-5.646;2023-02-01T01:41:18;11.90;;;7.63;;
69703;SDS011;56967;43.538;-5.646;2023-02-01T01:43:49;10.45;;;7.20;;
69703;SDS011;56967;43.538;-5.646;2023-02-01T01:46:17;13.02;;;7.28;;
69703;SDS011;56967;43.538;-5.646;2023-02-01T01:48:44;11.85;;;7.72;;
69703;SDS011;56967;43.538;-5.646;2023-02-01T01:51:12;10.85;;;6.85;;
69703;SDS011;56967;43.538;-5.646;2023-02-01T01:53:43;9.90;;;6.70;;
69703;SDS011;56967;43.538;-5.646;2023-02-01T01:56:13;10.27;;;6.32;;
69703;SDS011;56967;43.538;-5.646;2023-02-01T01:58:39;11.15;;;7.45;;
69703;SDS011;56967;43.538;-5.646;2023-02-01T02:01:05;10.68;;;6.30;;
69703;SDS011;56967;43.538;-5.646;2023-02-01T02:03:35;10.45;;;6.40;;
69703;SDS011;56967;43.538;-5.646;2023-02-01T02:06:09;9.18;;;5.82;;
69703;SDS011;56967;43.538;-5.646;2023-02-01T02:11:07;9.10;;;5.27;;
69703;SDS011;56967;43.538;-5.646;2023-02-01T02:13:35;7.88;;;5.28;;
69703;SDS011;56967;43.538;-5.646;2023-02-01T02:16:05;9.05;;;5.60;;
69703;SDS011;56967;43.538;-5.646;2023-02-01T02:38:39;6.60;;;4.45;;
69703;SDS011;56967;43.538;-5.646;2023-02-01T02:44:46;8.75;;;4.57;;
69703;SDS011;56967;43.538;-5.646;2023-02-01T02:48:02;8.75;;;4.90;;
69703;SDS011;56967;43.538;-5.646;2023-02-01T02:53:12;7.95;;;4.75;;
69703;SDS011;56967;43.538;-5.646;2023-02-01T02:56:00;6.95;;;4.65;;
69703;SDS011;56967;43.538;-5.646;2023-02-01T02:58:47;6.10;;;4.15;;
69703;SDS011;56967;43.538;-5.646;2023-02-01T03:01:31;7.72;;;4.50;;
69703;SDS011;56967;43.538;-5.646;2023-02-01T03:04:16;7.22;;;4.50;;
69703;SDS011;56967;43.538;-5.646;2023-02-01T03:06:45;6.82;;;4.30;;
69703;SDS011;56967;43.538;-5.646;2023-02-01T03:09:22;7.40;;;4.35;;
69703;SDS011;56967;43.538;-5.646;2023-02-01T03:12:01;6.32;;;3.95;;
69703;SDS011;56967;43.538;-5.646;2023-02-01T03:14:52;7.10;;;4.30;;
69703;SDS011;56967;43.538;-5.646;2023-02-01T03:17:27;7.20;;;4.18;;
69703;SDS011;56967;43.538;-5.646;2023-02-01T03:19:59;5.72;;;4.22;;
69703;SDS011;56967;43.538;-5.646;2023-02-01T03:22:27;6.72;;;4.25;;
69703;SDS011;56967;43.538;-5.646;2023-02-01T03:25:01;6.10;;;4.03;;
69703;SDS011;56967;43.538;-5.646;2023-02-01T03:27:41;7.68;;;3.80;;
69703;SDS011;56967;43.538;-5.646;2023-02-01T03:32:46;6.43;;;4.28;;
69703;SDS011;56967;43.538;-5.646;2023-02-01T03:35:40;7.75;;;4.20;;
69703;SDS011;56967;43.538;-5.646;2023-02-01T03:41:07;6.97;;;3.78;;
69703;SDS011;56967;43.538;-5.646;2023-02-01T03:43:35;6.40;;;3.80;;
69703;SDS011;56967;43.538;-5.646;2023-02-01T03:46:09;6.60;;;3.90;;
69703;SDS011;56967;43.538;-5.646;2023-02-01T03:48:40;5.70;;;3.90;;
69703;SDS011;56967;43.538;-5.646;2023-02-01T03:51:06;6.25;;;3.78;;
69703;SDS011;56967;43.538;-5.646;2023-02-01T03:53:34;5.90;;;3.70;;
69703;SDS011;56967;43.538;-5.646;2023-02-01T03:56:01;6.20;;;3.70;;
69703;SDS011;56967;43.538;-5.646;2023-02-01T03:58:27;5.57;;;3.58;;
69703;SDS011;56967;43.538;-5.646;2023-02-01T04:00:54;5.25;;;3.50;;
69703;SDS011;56967;43.538;-5.646;2023-02-01T04:03:21;5.50;;;3.60;;
69703;SDS011;56967;43.538;-5.646;2023-02-01T04:05:51;4.95;;;3.28;;
69703;SDS011;56967;43.538;-5.646;2023-02-01T04:08:17;6.50;;;3.63;;
69703;SDS011;56967;43.538;-5.646;2023-02-01T04:10:44;4.47;;;3.28;;
69703;SDS011;56967;43.538;-5.646;2023-02-01T04:13:10;6.20;;;3.40;;
69703;SDS011;56967;43.538;-5.646;2023-02-01T04:15:36;5.43;;;3.35;;
69703;SDS011;56967;43.538;-5.646;2023-02-01T04:18:02;5.80;;;3.60;;
69703;SDS011;56967;43.538;-5.646;2023-02-01T04:20:28;6.35;;;3.60;;
69703;SDS011;56967;43.538;-5.646;2023-02-01T04:22:53;5.50;;;3.65;;
69703;SDS011;56967;43.538;-5.646;2023-02-01T04:25:19;6.60;;;3.83;;
69703;SDS011;56967;43.538;-5.646;2023-02-01T04:27:45;5.78;;;3.78;;
69703;SDS011;56967;43.538;-5.646;2023-02-01T04:30:11;6.22;;;3.67;;
69703;SDS011;56967;43.538;-5.646;2023-02-01T04:32:37;5.75;;;3.67;;
69703;SDS011;56967;43.538;-5.646;2023-02-01T04:35:03;5.57;;;3.53;;
69703;SDS011;56967;43.538;-5.646;2023-02-01T04:37:29;6.38;;;3.70;;
69703;SDS011;56967;43.538;-5.646;2023-02-01T04:39:55;5.82;;;3.67;;
69703;SDS011;56967;43.538;-5.646;2023-02-01T04:42:20;6.93;;;3.58;;
69703;SDS011;56967;43.538;-5.646;2023-02-01T04:44:46;5.15;;;3.50;;
69703;SDS011;56967;43.538;-5.646;2023-02-01T04:47:11;4.72;;;3.42;;
69703;SDS011;56967;43.538;-5.646;2023-02-01T04:49:37;6.72;;;3.53;;
69703;SDS011;56967;43.538;-5.646;2023-02-01T04:52:03;6.10;;;3.72;;
69703;SDS011;56967;43.538;-5.646;2023-02-01T04:54:28;5.40;;;3.63;;
69703;SDS011;56967;43.538;-5.646;2023-02-01T04:56:54;5.38;;;3.78;;
69703;SDS011;56967;43.538;-5.646;2023-02-01T04:59:19;6.90;;;3.60;;
69703;SDS011;56967;43.538;-5.646;2023-02-01T05:01:45;5.88;;;3.50;;
69703;SDS011;56967;43.538;-5.646;2023-02-01T05:04:11;6.30;;;3.67;;
69703;SDS011;56967;43.538;-5.646;2023-02-01T05:06:36;5.47;;;3.58;;
69703;SDS011;56967;43.538;-5.646;2023-02-01T05:09:02;6.05;;;3.60;;
69703;SDS011;56967;43.538;-5.646;2023-02-01T05:11:28;6.70;;;3.60;;
69703;SDS011;56967;43.538;-5.646;2023-02-01T05:14:12;5.82;;;3.38;;
69703;SDS011;56967;43.538;-5.646;2023-02-01T05:16:37;4.90;;;3.40;;
69703;SDS011;56967;43.538;-5.646;2023-02-01T05:19:03;5.95;;;3.20;;
69703;SDS011;56967;43.538;-5.646;2023-02-01T05:21:28;6.78;;;3.42;;
69703;SDS011;56967;43.538;-5.646;2023-02-01T05:23:54;4.85;;;3.15;;
69703;SDS011;56967;43.538;-5.646;2023-02-01T05:26:35;6.90;;;3.90;;
69703;SDS011;56967;43.538;-5.646;2023-02-01T05:29:02;8.07;;;4.38;;
69703;SDS011;56967;43.538;-5.646;2023-02-01T05:31:28;6.18;;;3.30;;
69703;SDS011;56967;43.538;-5.646;2023-02-01T05:33:53;5.82;;;4.13;;
69703;SDS011;56967;43.538;-5.646;2023-02-01T05:36:19;5.88;;;3.60;;
69703;SDS011;56967;43.538;-5.646;2023-02-01T05:38:44;6.15;;;3.10;;
69703;SDS011;56967;43.538;-5.646;2023-02-01T05:41:10;5.57;;;3.38;;
69703;SDS011;56967;43.538;-5.646;2023-02-01T05:43:36;4.32;;;3.10;;
69703;SDS011;56967;43.538;-5.646;2023-02-01T05:46:01;5.47;;;3.30;;
69703;SDS011;56967;43.538;-5.646;2023-02-01T05:48:27;5.90;;;3.47;;
69703;SDS011;56967;43.538;-5.646;2023-02-01T05:50:52;6.05;;;3.58;;
69703;SDS011;56967;43.538;-5.646;2023-02-01T05:53:18;5.43;;;3.65;;
69703;SDS011;56967;43.538;-5.646;2023-02-01T05:55:43;5.55;;;3.35;;
69703;SDS011;56967;43.538;-5.646;2023-02-01T05:58:09;7.15;;;3.80;;
69703;SDS011;56967;43.538;-5.646;2023-02-01T06:00:35;7.43;;;3.70;;
69703;SDS011;56967;43.538;-5.646;2023-02-01T06:03:00;7.63;;;3.90;;
69703;SDS011;56967;43.538;-5.646;2023-02-01T06:05:26;7.57;;;3.95;;
69703;SDS011;56967;43.538;-5.646;2023-02-01T06:07:52;6.38;;;3.78;;
69703;SDS011;56967;43.538;-5.646;2023-02-01T06:10:18;5.40;;;3.38;;
69703;SDS011;56967;43.538;-5.646;2023-02-01T06:12:44;5.22;;;3.08;;
69703;SDS011;56967;43.538;-5.646;2023-02-01T06:15:11;5.13;;;3.50;;
69703;SDS011;56967;43.538;-5.646;2023-02-01T06:17:37;9.02;;;3.50;;
69703;SDS011;56967;43.538;-5.646;2023-02-01T06:20:04;5.13;;;3.17;;
69703;SDS011;56967;43.538;-5.646;2023-02-01T06:22:31;6.15;;;3.50;;
69703;SDS011;56967;43.538;-5.646;2023-02-01T06:24:57;4.53;;;3.08;;
69703;SDS011;56967;43.538;-5.646;2023-02-01T06:27:24;8.27;;;3.13;;
69703;SDS011;56967;43.538;-5.646;2023-02-01T06:29:50;5.03;;;3.17;;
69703;SDS011;56967;43.538;-5.646;2023-02-01T06:32:15;4.97;;;3.17;;
69703;SDS011;56967;43.538;-5.646;2023-02-01T06:34:42;4.75;;;2.90;;
69703;SDS011;56967;43.538;-5.646;2023-02-01T06:37:08;5.03;;;2.72;;
69703;SDS011;56967;43.538;-5.646;2023-02-01T06:39:33;7.53;;;2.72;;
69703;SDS011;56967;43.538;-5.646;2023-02-01T06:41:59;5.75;;;2.65;;
69703;SDS011;56967;43.538;-5.646;2023-02-01T06:44:25;4.50;;;2.80;;
69703;SDS011;56967;43.538;-5.646;2023-02-01T06:46:51;5.63;;;3.28;;
69703;SDS011;56967;43.538;-5.646;2023-02-01T06:49:16;4.60;;;2.78;;
69703;SDS011;56967;43.538;-5.646;2023-02-01T06:51:43;5.57;;;3.00;;
69703;SDS011;56967;43.538;-5.646;2023-02-01T06:54:08;7.18;;;3.20;;
69703;SDS011;56967;43.538;-5.646;2023-02-01T06:56:34;7.10;;;3.17;;
69703;SDS011;56967;43.538;-5.646;2023-02-01T06:59:02;4.93;;;2.83;;
69703;SDS011;56967;43.538;-5.646;2023-02-01T07:01:29;5.00;;;3.25;;
69703;SDS011;56967;43.538;-5.646;2023-02-01T07:03:54;5.40;;;2.80;;
69703;SDS011;56967;43.538;-5.646;2023-02-01T07:06:20;4.93;;;2.70;;
69703;SDS011;56967;43.538;-5.646;2023-02-01T07:08:46;6.32;;;2.63;;
69703;SDS011;56967;43.538;-5.646;2023-02-01T07:11:12;5.13;;;2.75;;
69703;SDS011;56967;43.538;-5.646;2023-02-01T07:13:39;7.03;;;3.28;;
69703;SDS011;56967;43.538;-5.646;2023-02-01T07:16:06;3.75;;;3.05;;
69703;SDS011;56967;43.538;-5.646;2023-02-01T07:18:34;9.07;;;3.50;;
69703;SDS011;56967;43.538;-5.646;2023-02-01T07:20:59;5.05;;;2.88;;
69703;SDS011;56967;43.538;-5.646;2023-02-01T07:23:25;4.22;;;2.85;;
69703;SDS011;56967;43.538;-5.646;2023-02-01T07:25:59;4.43;;;2.70;;
69703;SDS011;56967;43.538;-5.646;2023-02-01T07:28:28;4.87;;;2.77;;
69703;SDS011;56967;43.538;-5.646;2023-02-01T07:30:56;5.72;;;3.10;;
69703;SDS011;56967;43.538;-5.646;2023-02-01T07:33:27;3.75;;;2.70;;
69703;SDS011;56967;43.538;-5.646;2023-02-01T07:35:53;5.30;;;2.78;;
69703;SDS011;56967;43.538;-5.646;2023-02-01T07:38:19;4.30;;;2.25;;
69703;SDS011;56967;43.538;-5.646;2023-02-01T07:40:46;6.47;;;2.60;;
69703;SDS011;56967;43.538;-5.646;2023-02-01T07:43:12;4.43;;;2.55;;
69703;SDS011;56967;43.538;-5.646;2023-02-01T07:45:38;6.03;;;2.72;;
69703;SDS011;56967;43.538;-5.646;2023-02-01T07:48:04;4.55;;;2.50;;
69703;SDS011;56967;43.538;-5.646;2023-02-01T07:50:29;5.32;;;2.95;;
69703;SDS011;56967;43.538;-5.646;2023-02-01T07:52:55;5.22;;;2.90;;
69703;SDS011;56967;43.538;-5.646;2023-02-01T07:55:23;8.02;;;2.95;;
69703;SDS011;56967;43.538;-5.646;2023-02-01T07:57:49;6.28;;;2.70;;
69703;SDS011;56967;43.538;-5.646;2023-02-01T08:00:15;6.55;;;2.60;;
69703;SDS011;56967;43.538;-5.646;2023-02-01T08:03:00;7.97;;;3.42;;
69703;SDS011;56967;43.538;-5.646;2023-02-01T08:05:26;6.55;;;3.13;;
69703;SDS011;56967;43.538;-5.646;2023-02-01T08:07:52;5.40;;;3.10;;
69703;SDS011;56967;43.538;-5.646;2023-02-01T08:10:18;6.80;;;3.13;;
69703;SDS011;56967;43.538;-5.646;2023-02-01T08:12:44;6.88;;;2.75;;
69703;SDS011;56967;43.538;-5.646;2023-02-01T08:15:16;4.53;;;2.65;;
69703;SDS011;56967;43.538;-5.646;2023-02-01T08:17:51;9.63;;;2.58;;
69703;SDS011;56967;43.538;-5.646;2023-02-01T08:20:17;6.45;;;3.13;;
69703;SDS011;56967;43.538;-5.646;2023-02-01T08:22:44;6.45;;;3.10;;
69703;SDS011;56967;43.538;-5.646;2023-02-01T08:25:10;6.25;;;3.40;;
69703;SDS011;56967;43.538;-5.646;2023-02-01T08:27:36;4.78;;;3.42;;
69703;SDS011;56967;43.538;-5.646;2023-02-01T08:30:02;8.18;;;4.47;;
69703;SDS011;56967;43.538;-5.646;2023-02-01T08:32:29;10.77;;;4.90;;
69703;SDS011;56967;43.538;-5.646;2023-02-01T08:34:55;9.32;;;4.43;;
69703;SDS011;56967;43.538;-5.646;2023-02-01T08:37:21;8.40;;;4.13;;
69703;SDS011;56967;43.538;-5.646;2023-02-01T08:39:47;6.97;;;4.18;;
69703;SDS011;56967;43.538;-5.646;2023-02-01T08:42:15;9.80;;;4.30;;
69703;SDS011;56967;43.538;-5.646;2023-02-01T08:44:59;5.80;;;3.80;;
69703;SDS011;56967;43.538;-5.646;2023-02-01T08:47:25;6.18;;;3.83;;
69703;SDS011;56967;43.538;-5.646;2023-02-01T08:49:50;7.03;;;3.63;;
69703;SDS011;56967;43.538;-5.646;2023-02-01T08:52:16;6.05;;;3.50;;
69703;SDS011;56967;43.538;-5.646;2023-02-01T08:54:42;5.93;;;3.42;;
69703;SDS011;56967;43.538;-5.646;2023-02-01T08:57:07;5.57;;;3.55;;
69703;SDS011;56967;43.538;-5.646;2023-02-01T08:59:34;4.10;;;3.00;;
69703;SDS011;56967;43.538;-5.646;2023-02-01T09:02:00;6.55;;;3.90;;
69703;SDS011;56967;43.538;-5.646;2023-02-01T09:04:26;6.63;;;4.63;;
69703;SDS011;56967;43.538;-5.646;2023-02-01T09:06:51;8.77;;;4.68;;
69703;SDS011;56967;43.538;-5.646;2023-02-01T09:09:17;7.22;;;3.85;;
69703;SDS011;56967;43.538;-5.646;2023-02-01T09:11:42;9.23;;;4.60;;
69703;SDS011;56967;43.538;-5.646;2023-02-01T09:14:08;8.90;;;4.45;;
69703;SDS011;56967;43.538;-5.646;2023-02-01T09:16:33;11.10;;;4.28;;
69703;SDS011;56967;43.538;-5.646;2023-02-01T09:18:59;7.70;;;4.00;;
69703;SDS011;56967;43.538;-5.646;2023-02-01T09:21:25;8.60;;;4.10;;
69703;SDS011;56967;43.538;-5.646;2023-02-01T09:23:51;6.88;;;4.03;;
69703;SDS011;56967;43.538;-5.646;2023-02-01T09:26:18;12.52;;;5.88;;
69703;SDS011;56967;43.538;-5.646;2023-02-01T09:28:44;10.80;;;3.90;;
69703;SDS011;56967;43.538;-5.646;2023-02-01T09:31:09;8.13;;;3.88;;
69703;SDS011;56967;43.538;-5.646;2023-02-01T09:33:35;9.18;;;4.72;;
69703;SDS011;56967;43.538;-5.646;2023-02-01T09:36:02;10.10;;;4.70;;
69703;SDS011;56967;43.538;-5.646;2023-02-01T09:38:29;6.75;;;3.83;;
69703;SDS011;56967;43.538;-5.646;2023-02-01T09:40:56;6.97;;;3.83;;
69703;SDS011;56967;43.538;-5.646;2023-02-01T09:48:36;8.95;;;3.63;;
69703;SDS011;56967;43.538;-5.646;2023-02-01T09:51:06;8.95;;;4.20;;
69703;SDS011;56967;43.538;-5.646;2023-02-01T09:53:43;6.13;;;3.60;;
69703;SDS011;56967;43.538;-5.646;2023-02-01T09:56:23;10.45;;;4.47;;
69703;SDS011;56967;43.538;-5.646;2023-02-01T09:58:58;8.60;;;3.92;;
69703;SDS011;56967;43.538;-5.646;2023-02-01T10:01:33;14.90;;;4.10;;
69703;SDS011;56967;43.538;-5.646;2023-02-01T10:04:11;10.93;;;5.40;;
69703;SDS011;56967;43.538;-5.646;2023-02-01T10:09:25;7.65;;;3.90;;
69703;SDS011;56967;43.538;-5.646;2023-02-01T10:17:19;7.10;;;3.45;;
69703;SDS011;56967;43.538;-5.646;2023-02-01T10:25:23;7.72;;;3.90;;
69703;SDS011;56967;43.538;-5.646;2023-02-01T10:27:53;7.07;;;3.70;;
69703;SDS011;56967;43.538;-5.646;2023-02-01T10:30:23;7.90;;;3.72;;
69703;SDS011;56967;43.538;-5.646;2023-02-01T10:32:56;8.63;;;3.80;;
69703;SDS011;56967;43.538;-5.646;2023-02-01T10:35:33;12.60;;;3.80;;
69703;SDS011;56967;43.538;-5.646;2023-02-01T10:38:01;7.25;;;3.28;;
69703;SDS011;56967;43.538;-5.646;2023-02-01T10:40:29;11.05;;;4.68;;
69703;SDS011;56967;43.538;-5.646;2023-02-01T10:42:59;6.47;;;3.58;;
69703;SDS011;56967;43.538;-5.646;2023-02-01T10:45:30;14.77;;;4.60;;
69703;SDS011;56967;43.538;-5.646;2023-02-01T10:47:59;15.40;;;4.93;;
69703;SDS011;56967;43.538;-5.646;2023-02-01T10:55:52;16.70;;;5.03;;
69703;SDS011;56967;43.538;-5.646;2023-02-01T10:58:19;15.68;;;4.97;;
69703;SDS011;56967;43.538;-5.646;2023-02-01T11:00:56;16.02;;;4.22;;
69703;SDS011;56967;43.538;-5.646;2023-02-01T11:08:51;14.82;;;4.50;;
69703;SDS011;56967;43.538;-5.646;2023-02-01T11:11:19;9.93;;;4.10;;
69703;SDS011;56967;43.538;-5.646;2023-02-01T11:13:51;19.08;;;4.55;;
69703;SDS011;56967;43.538;-5.646;2023-02-01T11:16:19;17.35;;;4.00;;
69703;SDS011;56967;43.538;-5.646;2023-02-01T11:18:44;9.50;;;2.90;;
69703;SDS011;56967;43.538;-5.646;2023-02-01T11:21:10;10.60;;;2.78;;
69703;SDS011;56967;43.538;-5.646;2023-02-01T11:23:41;8.82;;;2.30;;
69703;SDS011;56967;43.538;-5.646;2023-02-01T11:26:14;7.90;;;2.80;;
69703;SDS011;56967;43.538;-5.646;2023-02-01T11:31:17;7.88;;;3.08;;
69703;SDS011;56967;43.538;-5.646;2023-02-01T11:33:46;15.27;;;3.65;;
69703;SDS011;56967;43.538;-5.646;2023-02-01T11:38:51;9.68;;;3.88;;
69703;SDS011;56967;43.538;-5.646;2023-02-01T11:41:34;10.68;;;3.88;;
69703;SDS011;56967;43.538;-5.646;2023-02-01T11:44:20;4.95;;;2.60;;
69703;SDS011;56967;43.538;-5.646;2023-02-01T11:46:48;4.93;;;2.10;;
69703;SDS011;56967;43.538;-5.646;2023-02-01T11:49:23;3.70;;;1.58;;
69703;SDS011;56967;43.538;-5.646;2023-02-01T11:52:02;4.63;;;2.35;;
69703;SDS011;56967;43.538;-5.646;2023-02-01T11:54:49;5.95;;;2.22;;
69703;SDS011;56967;43.538;-5.646;2023-02-01T12:11:24;2.70;;;0.88;;
69703;SDS011;56967;43.538;-5.646;2023-02-01T12:41:51;1.67;;;0.60;;
69703;SDS011;56967;43.538;-5.646;2023-02-01T12:44:25;3.05;;;0.60;;
69703;SDS011;56967;43.538;-5.646;2023-02-01T12:52:24;1.42;;;0.60;;
69703;SDS011;56967;43.538;-5.646;2023-02-01T12:55:07;3.15;;;0.85;;
69703;SDS011;56967;43.538;-5.646;2023-02-01T12:57:43;1.15;;;0.57;;
69703;SDS011;56967;43.538;-5.646;2023-02-01T13:00:30;1.33;;;0.50;;
69703;SDS011;56967;43.538;-5.646;2023-02-01T13:03:05;3.35;;;1.17;;
69703;SDS011;56967;43.538;-5.646;2023-02-01T13:05:53;3.55;;;1.13;;
69703;SDS011;56967;43.538;-5.646;2023-02-01T13:08:56;1.30;;;0.98;;
69703;SDS011;56967;43.538;-5.646;2023-02-01T13:11:36;5.38;;;1.30;;
69703;SDS011;56967;43.538;-5.646;2023-02-01T13:17:05;4.28;;;1.50;;
69703;SDS011;56967;43.538;-5.646;2023-02-01T13:19:47;2.38;;;1.10;;
69703;SDS011;56967;43.538;-5.646;2023-02-01T13:22:34;2.78;;;1.38;;
69703;SDS011;56967;43.538;-5.646;2023-02-01T13:27:35;3.03;;;1.25;;
69703;SDS011;56967;43.538;-5.646;2023-02-01T13:30:06;7.38;;;1.60;;
69703;SDS011;56967;43.538;-5.646;2023-02-01T13:41:23;7.10;;;0.90;;
69703;SDS011;56967;43.538;-5.646;2023-02-01T13:44:03;2.38;;;0.90;;
69703;SDS011;56967;43.538;-5.646;2023-02-01T13:46:38;2.15;;;0.80;;
69703;SDS011;56967;43.538;-5.646;2023-02-01T13:49:25;7.13;;;0.95;;
69703;SDS011;56967;43.538;-5.646;2023-02-01T13:51:54;2.65;;;0.60;;
69703;SDS011;56967;43.538;-5.646;2023-02-01T13:54:26;2.08;;;0.47;;
69703;SDS011;56967;43.538;-5.646;2023-02-01T13:57:37;3.65;;;1.08;;
69703;SDS011;56967;43.538;-5.646;2023-02-01T14:00:07;2.85;;;0.90;;
69703;SDS011;56967;43.538;-5.646;2023-02-01T14:13:28;6.45;;;1.08;;
69703;SDS011;56967;43.538;-5.646;2023-02-01T14:21:17;4.60;;;0.98;;
69703;SDS011;56967;43.538;-5.646;2023-02-01T14:26:20;4.57;;;1.33;;
69703;SDS011;56967;43.538;-5.646;2023-02-01T14:31:54;2.78;;;0.93;;
69703;SDS011;56967;43.538;-5.646;2023-02-01T14:35:07;5.25;;;1.52;;
69703;SDS011;56967;43.538;-5.646;2023-02-01T14:42:25;7.32;;;1.45;;
69703;SDS011;56967;43.538;-5.646;2023-02-01T14:44:52;3.83;;;1.13;;
69703;SDS011;56967;43.538;-5.646;2023-02-01T14:50:02;2.72;;;0.95;;
69703;SDS011;56967;43.538;-5.646;2023-02-01T14:52:36;3.75;;;0.80;;
69703;SDS011;56967;43.538;-5.646;2023-02-01T14:55:12;6.95;;;1.23;;
69703;SDS011;56967;43.538;-5.646;2023-02-01T14:57:42;6.28;;;1.27;;
69703;SDS011;56967;43.538;-5.646;2023-02-01T15:02:43;7.60;;;1.02;;
69703;SDS011;56967;43.538;-5.646;2023-02-01T15:05:30;8.02;;;1.45;;
69703;SDS011;56967;43.538;-5.646;2023-02-01T15:08:35;6.90;;;1.15;;
69703;SDS011;56967;43.538;-5.646;2023-02-01T15:10:55;8.90;;;1.05;;
69703;SDS011;56967;43.538;-5.646;2023-02-01T15:13:25;4.30;;;1.00;;
69703;SDS011;56967;43.538;-5.646;2023-02-01T15:16:12;2.92;;;0.70;;
69703;SDS011;56967;43.538;-5.646;2023-02-01T15:18:39;2.97;;;0.70;;
69703;SDS011;56967;43.538;-5.646;2023-02-01T15:21:06;2.53;;;0.75;;
69703;SDS011;56967;43.538;-5.646;2023-02-01T15:23:40;10.40;;;1.55;;
69703;SDS011;56967;43.538;-5.646;2023-02-01T15:26:05;4.05;;;0.82;;
69703;SDS011;56967;43.538;-5.646;2023-02-01T15:28:31;5.47;;;0.93;;
69703;SDS011;56967;43.538;-5.646;2023-02-01T15:31:03;6.18;;;1.23;;
69703;SDS011;56967;43.538;-5.646;2023-02-01T15:33:30;6.70;;;1.27;;
69703;SDS011;56967;43.538;-5.646;2023-02-01T15:38:33;4.25;;;0.70;;
69703;SDS011;56967;43.538;-5.646;2023-02-01T15:41:09;3.33;;;0.70;;
69703;SDS011;56967;43.538;-5.646;2023-02-01T15:46:31;2.30;;;0.70;;
69703;SDS011;56967;43.538;-5.646;2023-02-01T15:49:20;1.58;;;0.50;;
69703;SDS011;56967;43.538;-5.646;2023-02-01T15:51:51;1.63;;;0.60;;
69703;SDS011;56967;43.538;-5.646;2023-02-01T15:54:28;2.42;;;0.80;;
69703;SDS011;56967;43.538;-5.646;2023-02-01T15:57:00;4.07;;;0.73;;
69703;SDS011;56967;43.538;-5.646;2023-02-01T16:08:48;10.80;;;1.75;;
69703;SDS011;56967;43.538;-5.646;2023-02-01T16:10:52;13.82;;;1.70;;
69703;SDS011;56967;43.538;-5.646;2023-02-01T16:13:20;8.90;;;1.52;;
69703;SDS011;56967;43.538;-5.646;2023-02-01T16:15:46;8.93;;;1.52;;
69703;SDS011;56967;43.538;-5.646;2023-02-01T16:18:12;10.40;;;1.63;;
69703;SDS011;56967;43.538;-5.646;2023-02-01T16:20:39;14.38;;;1.85;;
69703;SDS011;56967;43.538;-5.646;2023-02-01T16:23:06;7.22;;;1.42;;
69703;SDS011;56967;43.538;-5.646;2023-02-01T16:25:33;10.95;;;1.60;;
69703;SDS011;56967;43.538;-5.646;2023-02-01T16:28:00;15.85;;;2.00;;
69703;SDS011;56967;43.538;-5.646;2023-02-01T16:30:25;4.85;;;1.08;;
69703;SDS011;56967;43.538;-5.646;2023-02-01T16:32:52;10.07;;;1.48;;
69703;SDS011;56967;43.538;-5.646;2023-02-01T16:35:26;9.70;;;2.30;;
69703;SDS011;56967;43.538;-5.646;2023-02-01T16:37:56;8.25;;;1.70;;
69703;SDS011;56967;43.538;-5.646;2023-02-01T16:40:23;9.93;;;1.77;;
69703;SDS011;56967;43.538;-5.646;2023-02-01T16:42:49;8.15;;;1.65;;
69703;SDS011;56967;43.538;-5.646;2023-02-01T16:45:23;8.18;;;1.67;;
69703;SDS011;56967;43.538;-5.646;2023-02-01T16:47:49;9.13;;;1.67;;
69703;SDS011;56967;43.538;-5.646;2023-02-01T16:50:18;7.53;;;2.53;;
69703;SDS011;56967;43.538;-5.646;2023-02-01T16:52:47;11.05;;;2.17;;
69703;SDS011;56967;43.538;-5.646;2023-02-01T16:55:13;7.70;;;2.10;;
69703;SDS011;56967;43.538;-5.646;2023-02-01T16:57:41;7.07;;;1.83;;
69703;SDS011;56967;43.538;-5.646;2023-02-01T17:00:07;9.77;;;1.83;;
69703;SDS011;56967;43.538;-5.646;2023-02-01T17:02:38;8.38;;;1.63;;
69703;SDS011;56967;43.538;-5.646;2023-02-01T17:05:04;6.22;;;1.73;;
69703;SDS011;56967;43.538;-5.646;2023-02-01T17:07:31;7.18;;;1.27;;
69703;SDS011;56967;43.538;-5.646;2023-02-01T17:09:56;14.20;;;1.95;;
69703;SDS011;56967;43.538;-5.646;2023-02-01T17:12:26;13.32;;;2.53;;
69703;SDS011;56967;43.538;-5.646;2023-02-01T17:14:55;7.43;;;2.10;;
69703;SDS011;56967;43.538;-5.646;2023-02-01T17:17:22;9.07;;;2.10;;
69703;SDS011;56967;43.538;-5.646;2023-02-01T17:19:50;11.43;;;2.30;;
69703;SDS011;56967;43.538;-5.646;2023-02-01T17:22:21;7.78;;;2.10;;
69703;SDS011;56967;43.538;-5.646;2023-02-01T17:24:47;8.98;;;2.10;;
69703;SDS011;56967;43.538;-5.646;2023-02-01T17:27:14;6.95;;;1.95;;
69703;SDS011;56967;43.538;-5.646;2023-02-01T17:29:40;8.05;;;2.20;;
69703;SDS011;56967;43.538;-5.646;2023-02-01T17:32:09;5.45;;;2.22;;
69703;SDS011;56967;43.538;-5.646;2023-02-01T17:39:51;9.48;;;1.85;;
69703;SDS011;56967;43.538;-5.646;2023-02-01T17:42:38;8.82;;;2.00;;
69703;SDS011;56967;43.538;-5.646;2023-02-01T17:45:20;11.18;;;2.00;;
69703;SDS011;56967;43.538;-5.646;2023-02-01T17:48:02;6.50;;;2.17;;
69703;SDS011;56967;43.538;-5.646;2023-02-01T17:53:25;9.25;;;2.50;;